Time;durP1;ratioP1;P1;durP2;ratioP2;P2;SDS_P1;SDS_P2;PMS_P1;PMS_P2;Temp;Humidity;BMP_temperature;BMP_pressure;BME280_temperature;BME280_humidity;BME280_pressure;Samples;Min_cycle;Max_cycle;Signal;HPM_P1;HPM_P2
2023/03/13 00:01:33;;;;;;;21.17;4.00;;;;;;;8.29;100.00;98322.13;5089217;28;20261;-79
2023/03/13 00:04:02;;;;;;;16.17;3.93;;;;;;;8.30;100.00;98317.72;5094381;28;20184;-78
2023/03/13 00:06:35;;;;;;;19.67;4.50;;;;;;;8.26;100.00;98316.22;5093835;28;20249;-78
2023/03/13 00:09:05;;;;;;;18.80;4.27;;;;;;;8.25;100.00;98317.19;5092349;28;20247;-79
2023/03/13 00:11:35;;;;;;;16.97;4.67;;;;;;;8.18;100.00;98313.25;5092742;28;20709;-78
2023/03/13 00:14:05;;;;;;;16.17;3.80;;;;;;;8.29;100.00;98308.09;5128805;27;20196;-79
2023/03/13 00:16:36;;;;;;;14.83;3.67;;;;;;;8.25;100.00;98301.34;5129039;27;20213;-79
2023/03/13 00:19:10;;;;;;;21.10;4.20;;;;;;;8.19;100.00;98296.47;5130295;27;20189;-78
2023/03/13 00:21:40;;;;;;;14.60;4.00;;;;;;;8.20;100.00;98295.53;5120024;27;20262;-78
2023/03/13 00:24:10;;;;;;;21.83;4.60;;;;;;;8.27;100.00;98288.91;5131780;27;20233;-78
2023/03/13 00:26:41;;;;;;;15.17;4.10;;;;;;;8.30;100.00;98280.78;5124083;27;20677;-79
2023/03/13 00:29:09;;;;;;;18.10;4.33;;;;;;;8.21;100.00;98277.00;5044015;28;20204;-79
2023/03/13 00:31:37;;;;;;;16.23;4.50;;;;;;;8.20;100.00;98277.94;5041884;28;20190;-79
2023/03/13 00:34:09;;;;;;;21.90;4.10;;;;;;;8.10;100.00;98276.00;5024714;28;20236;-79
2023/03/13 00:36:38;;;;;;;15.57;3.90;;;;;;;8.12;100.00;98277.63;5028382;28;20252;-79
2023/03/13 00:39:07;;;;;;;18.47;4.07;;;;;;;8.17;100.00;98278.13;5024494;28;20226;-79
2023/03/13 00:41:38;;;;;;;15.50;4.50;;;;;;;8.17;100.00;98270.22;5026652;28;20214;-79
2023/03/13 00:44:08;;;;;;;16.87;3.73;;;;;;;8.13;100.00;98255.56;5025958;28;20259;-80
2023/03/13 00:46:37;;;;;;;18.27;4.00;;;;;;;8.16;100.00;98254.50;5042117;28;20293;-79
2023/03/13 00:49:07;;;;;;;18.33;4.70;;;;;;;8.23;100.00;98250.50;5092247;28;20199;-79
2023/03/13 00:51:38;;;;;;;20.17;4.47;;;;;;;8.12;100.00;98245.13;5091272;28;20576;-79
2023/03/13 00:54:06;;;;;;;17.33;4.63;;;;;;;8.21;100.00;98240.06;5089246;28;20202;-79
2023/03/13 00:56:35;;;;;;;20.27;4.87;;;;;;;8.13;100.00;98234.47;5088346;28;20241;-79
2023/03/13 00:59:04;;;;;;;21.47;4.33;;;;;;;8.22;100.00;98233.00;5091508;28;20249;-79
2023/03/13 01:01:36;;;;;;;19.10;4.40;;;;;;;8.17;100.00;98232.44;5095063;28;20204;-78
2023/03/13 01:04:06;;;;;;;18.73;3.93;;;;;;;8.08;100.00;98226.00;5092542;28;20198;-79
2023/03/13 01:06:36;;;;;;;22.47;4.43;;;;;;;8.18;100.00;98224.44;5089325;28;20223;-78
2023/03/13 01:09:06;;;;;;;13.83;3.50;;;;;;;8.12;100.00;98213.47;5091752;28;20200;-79
2023/03/13 01:11:38;;;;;;;22.43;5.10;;;;;;;8.18;100.00;98211.25;5087547;28;20188;-78
2023/03/13 01:14:08;;;;;;;26.87;4.17;;;;;;;8.17;100.00;98206.06;5089994;28;20184;-79
2023/03/13 01:16:39;;;;;;;19.20;3.87;;;;;;;8.22;100.00;98194.25;5087778;28;20199;-78
2023/03/13 01:19:12;;;;;;;16.53;4.00;;;;;;;8.21;100.00;98182.03;5092263;28;20188;-79
2023/03/13 01:21:41;;;;;;;16.50;4.23;;;;;;;8.14;100.00;98182.56;5091283;28;20215;-78
2023/03/13 01:24:09;;;;;;;14.67;4.07;;;;;;;8.20;100.00;98172.44;5088541;28;20204;-79
2023/03/13 01:26:39;;;;;;;15.90;3.97;;;;;;;8.24;100.00;98165.13;5087641;28;20280;-79
2023/03/13 01:29:10;;;;;;;18.93;4.20;;;;;;;8.20;100.00;98153.97;5092110;28;20245;-78
2023/03/13 01:31:40;;;;;;;17.40;4.03;;;;;;;8.27;100.00;98163.13;5086738;28;20199;-78
2023/03/13 01:34:10;;;;;;;20.97;5.33;;;;;;;8.28;100.00;98153.41;5091851;28;20268;-79
2023/03/13 01:36:39;;;;;;;16.93;4.20;;;;;;;8.32;100.00;98157.53;5089089;28;20260;-79
2023/03/13 01:39:08;;;;;;;17.57;3.60;;;;;;;8.36;100.00;98152.91;5089481;28;20220;-79
2023/03/13 01:41:38;;;;;;;18.47;4.20;;;;;;;8.29;100.00;98153.28;5090318;28;20200;-79
2023/03/13 01:44:07;;;;;;;14.87;4.03;;;;;;;8.23;100.00;98140.56;5107375;28;20233;-79
2023/03/13 01:46:35;;;;;;;17.50;3.83;;;;;;;8.25;100.00;98143.94;5105845;28;20284;-78
2023/03/13 01:49:07;;;;;;;17.57;4.00;;;;;;;8.25;100.00;98146.56;5110285;28;20191;-78
2023/03/13 01:51:40;;;;;;;23.07;4.33;;;;;;;8.25;100.00;98120.19;5110269;28;20203;-79
2023/03/13 01:54:11;;;;;;;15.97;3.83;;;;;;;8.30;100.00;98128.63;5109152;28;20195;-79
2023/03/13 01:56:44;;;;;;;15.93;3.97;;;;;;;8.29;100.00;98124.28;5113873;28;20196;-79
2023/03/13 01:59:15;;;;;;;20.47;3.57;;;;;;;8.22;100.00;98109.88;5110908;28;20734;-79
2023/03/13 02:01:45;;;;;;;19.67;4.13;;;;;;;8.23;100.00;98111.53;5102529;28;20200;-79
2023/03/13 02:04:18;;;;;;;16.50;3.90;;;;;;;8.19;100.00;98106.59;5095715;28;20237;-78
2023/03/13 02:06:50;;;;;;;14.67;4.63;;;;;;;8.22;100.00;98109.88;5092822;28;20245;-79
2023/03/13 02:09:23;;;;;;;15.50;3.77;;;;;;;8.19;100.00;98110.06;5091488;28;20237;-79
2023/03/13 02:11:57;;;;;;;18.63;3.83;;;;;;;8.17;100.00;98095.31;5091080;28;20195;-78
2023/03/13 02:14:30;;;;;;;18.77;3.73;;;;;;;8.20;100.00;98097.72;5090017;28;20248;-79
2023/03/13 02:16:58;;;;;;;16.70;4.43;;;;;;;8.32;100.00;98094.22;5091215;28;20196;-79
2023/03/13 02:19:38;;;;;;;18.43;4.07;;;;;;;8.23;100.00;98097.50;5095194;28;20184;-79
2023/03/13 02:22:13;;;;;;;17.77;4.43;;;;;;;8.35;100.00;98091.38;5093791;28;20650;-79
2023/03/13 02:24:47;;;;;;;13.13;3.63;;;;;;;8.37;100.00;98092.09;5094827;28;20244;-79
2023/03/13 02:27:19;;;;;;;19.07;4.30;;;;;;;8.36;100.00;98095.69;5095265;28;20211;-78
2023/03/13 02:29:48;;;;;;;15.40;4.53;;;;;;;8.31;100.00;98081.97;5092840;28;20269;-79
2023/03/13 02:32:17;;;;;;;20.53;4.20;;;;;;;8.28;100.00;98082.19;5094665;28;20648;-79
2023/03/13 02:34:50;;;;;;;17.13;4.10;;;;;;;8.24;100.00;98076.31;5094748;28;20203;-78
2023/03/13 02:37:20;;;;;;;19.43;3.90;;;;;;;8.30;100.00;98081.16;5093488;28;20233;-79
2023/03/13 02:39:51;;;;;;;15.70;3.80;;;;;;;8.24;100.00;98073.66;5094786;28;20227;-79
2023/03/13 02:42:23;;;;;;;17.27;4.03;;;;;;;8.19;100.00;98073.13;5091944;28;20192;-79
2023/03/13 02:44:52;;;;;;;17.63;4.23;;;;;;;8.08;100.00;98078.34;5094389;28;20230;-79
2023/03/13 02:47:23;;;;;;;17.67;3.67;;;;;;;8.05;100.00;98089.13;5094320;28;20226;-78
2023/03/13 02:49:51;;;;;;;17.10;3.90;;;;;;;8.04;100.00;98084.78;5094453;28;20188;-79
2023/03/13 02:52:24;;;;;;;17.10;3.90;;;;;;;8.08;100.00;98082.78;5094098;28;20184;-79
2023/03/13 02:54:57;;;;;;;19.43;4.30;;;;;;;8.02;100.00;98073.53;5094733;28;20692;-78
2023/03/13 02:57:28;;;;;;;13.73;4.17;;;;;;;7.96;100.00;98066.88;5094246;28;20200;-78
2023/03/13 02:59:56;;;;;;;18.70;4.70;;;;;;;7.96;100.00;98064.25;5095035;28;20198;-78
2023/03/13 03:02:24;;;;;;;19.20;4.17;;;;;;;7.92;100.00;98067.22;5091291;28;20200;-78
2023/03/13 03:04:53;;;;;;;20.20;4.37;;;;;;;7.91;100.00;98061.09;5090949;28;20192;-79
2023/03/13 03:07:21;;;;;;;19.13;4.53;;;;;;;7.97;100.00;98050.09;5088535;28;20218;-78
2023/03/13 03:09:49;;;;;;;21.30;4.20;;;;;;;7.96;100.00;98045.78;5095597;27;20225;-78
2023/03/13 03:12:19;;;;;;;16.80;4.13;;;;;;;7.99;100.00;98047.34;5093613;28;20184;-78
2023/03/13 03:14:49;;;;;;;22.07;5.03;;;;;;;7.90;100.00;98040.94;5091924;28;20249;-78
2023/03/13 03:17:18;;;;;;;22.83;4.40;;;;;;;7.99;100.00;98040.28;5092511;28;20241;-78
2023/03/13 03:19:46;;;;;;;16.40;4.07;;;;;;;7.94;100.00;98039.78;5092799;28;20191;-79
2023/03/13 03:22:14;;;;;;;17.73;4.20;;;;;;;7.93;100.00;98039.91;5091627;28;20249;-78
2023/03/13 03:24:42;;;;;;;24.20;4.97;;;;;;;7.93;100.00;98030.19;5090176;28;20238;-77
2023/03/13 03:27:10;;;;;;;15.50;4.10;;;;;;;8.04;100.00;98018.88;5092373;28;20268;-79
2023/03/13 03:29:39;;;;;;;15.93;3.87;;;;;;;8.06;100.00;98026.66;5091380;28;20642;-78
2023/03/13 03:32:09;;;;;;;17.53;4.00;;;;;;;8.11;100.00;98014.84;5093417;28;20183;-78
2023/03/13 03:34:38;;;;;;;21.63;4.40;;;;;;;8.16;100.00;98022.41;5091878;28;20226;-78
2023/03/13 03:37:06;;;;;;;17.07;4.33;;;;;;;8.15;100.00;98031.28;5092034;28;20187;-78
2023/03/13 03:39:35;;;;;;;16.67;3.93;;;;;;;8.20;100.00;98023.88;5030733;28;20253;-79
2023/03/13 03:42:04;;;;;;;19.57;4.80;;;;;;;8.25;100.00;98027.03;5031130;28;20221;-79
2023/03/13 03:44:33;;;;;;;18.23;3.77;;;;;;;8.32;100.00;98038.81;5027886;28;20209;-79
2023/03/13 03:47:01;;;;;;;15.10;3.90;;;;;;;8.39;100.00;98028.66;5024264;28;20224;-79
2023/03/13 03:49:31;;;;;;;19.07;3.93;;;;;;;8.46;100.00;98022.00;5028800;28;20250;-79
2023/03/13 03:51:59;;;;;;;15.13;4.13;;;;;;;8.52;100.00;98019.75;5029780;28;20200;-79
2023/03/13 03:54:28;;;;;;;16.30;3.50;;;;;;;8.57;100.00;98028.16;5027035;28;20194;-80
2023/03/13 03:56:56;;;;;;;13.93;3.10;;;;;;;8.57;100.00;98027.31;5039645;28;20200;-79
2023/03/13 03:59:25;;;;;;;17.83;3.73;;;;;;;8.62;100.00;98017.28;5097691;28;20199;-79
2023/03/13 04:01:53;;;;;;;12.33;3.33;;;;;;;8.58;100.00;98031.66;5087050;28;20195;-80
2023/03/13 04:04:22;;;;;;;14.03;3.50;;;;;;;8.66;100.00;98008.16;5088326;28;20200;-80
2023/03/13 04:06:53;;;;;;;12.13;3.40;;;;;;;8.69;100.00;97986.00;5089043;28;20267;-80
2023/03/13 04:09:21;;;;;;;11.90;3.63;;;;;;;8.66;100.00;97989.69;5092252;28;20230;-79
2023/03/13 04:11:51;;;;;;;13.43;3.20;;;;;;;8.62;100.00;97996.16;5086199;28;20200;-79
2023/03/13 04:14:20;;;;;;;17.37;4.40;;;;;;;8.61;100.00;97989.22;5091628;28;20249;-80
2023/03/13 04:16:48;;;;;;;16.47;4.03;;;;;;;8.59;100.00;97983.22;5092530;28;20218;-79
2023/03/13 04:19:18;;;;;;;16.77;4.30;;;;;;;8.58;100.00;97977.06;5050414;28;20197;-80
2023/03/13 04:21:49;;;;;;;13.33;3.40;;;;;;;8.62;100.00;97968.94;5041903;28;20189;-80
2023/03/13 04:24:19;;;;;;;16.23;3.57;;;;;;;8.59;100.00;97967.38;5047999;28;20201;-80
2023/03/13 04:26:48;;;;;;;13.23;4.03;;;;;;;8.60;100.00;97966.41;5042043;28;20236;-80
2023/03/13 04:29:20;;;;;;;16.43;3.90;;;;;;;8.64;100.00;97965.22;5047005;28;20197;-80
2023/03/13 04:31:48;;;;;;;15.27;4.00;;;;;;;8.68;100.00;97973.72;5046548;28;20367;-79
2023/03/13 04:34:17;;;;;;;15.97;3.70;;;;;;;8.56;100.00;97957.03;5045100;28;20244;-79
2023/03/13 04:36:45;;;;;;;13.50;3.67;;;;;;;8.64;100.00;97969.66;5052891;28;20199;-80
2023/03/13 04:39:14;;;;;;;17.63;3.53;;;;;;;8.66;100.00;97973.00;5092369;28;20364;-79
2023/03/13 04:41:44;;;;;;;11.07;3.30;;;;;;;8.66;100.00;97967.72;5091135;28;20321;-79
2023/03/13 04:44:12;;;;;;;16.43;4.10;;;;;;;8.65;100.00;97968.69;5084650;28;20203;-79
2023/03/13 04:46:40;;;;;;;18.10;4.90;;;;;;;8.58;100.00;97974.44;5094853;28;20316;-79
2023/03/13 04:49:09;;;;;;;13.33;3.23;;;;;;;8.64;100.00;97964.38;5089782;28;20241;-79
2023/03/13 04:51:37;;;;;;;12.10;3.63;;;;;;;8.65;100.00;97961.63;5083432;28;20195;-80
2023/03/13 04:54:06;;;;;;;10.70;3.93;;;;;;;8.66;100.00;97951.91;5093853;28;20192;-79
2023/03/13 04:56:34;;;;;;;11.67;3.40;;;;;;;8.69;100.00;97954.31;5087194;28;20200;-79
2023/03/13 04:59:14;;;;;;;11.80;3.57;;;;;;;8.62;100.00;97953.94;5092209;28;20241;-79
2023/03/13 05:01:43;;;;;;;16.10;3.93;;;;;;;8.58;100.00;97939.28;5094041;28;20192;-79
2023/03/13 05:04:12;;;;;;;13.60;3.90;;;;;;;8.58;100.00;97948.03;5090899;28;20188;-80
2023/03/13 05:06:40;;;;;;;16.17;4.43;;;;;;;8.47;100.00;97944.53;5090692;28;20191;-79
2023/03/13 05:09:09;;;;;;;14.87;4.23;;;;;;;8.48;100.00;97948.84;5092120;28;20207;-79
2023/03/13 05:11:39;;;;;;;15.77;4.87;;;;;;;8.47;100.00;97944.53;5090989;28;20352;-79
2023/03/13 05:14:09;;;;;;;16.13;4.93;;;;;;;8.46;100.00;97929.66;5092067;28;20196;-79
2023/03/13 05:16:39;;;;;;;18.87;5.20;;;;;;;8.35;100.00;97925.19;5047128;28;20212;-80
2023/03/13 05:19:08;;;;;;;16.63;5.20;;;;;;;8.36;100.00;97928.66;5048189;28;20204;-79
2023/03/13 05:21:37;;;;;;;13.53;5.77;;;;;;;8.39;100.00;97937.19;5040979;28;20197;-79
2023/03/13 05:24:06;;;;;;;16.43;6.43;;;;;;;8.35;100.00;97934.91;5051039;28;20197;-80
2023/03/13 05:26:36;;;;;;;18.53;6.60;;;;;;;8.30;100.00;97928.16;5051211;28;20200;-80
2023/03/13 05:29:05;;;;;;;17.43;6.60;;;;;;;8.37;100.00;97919.78;5020888;28;20213;-79
2023/03/13 05:31:33;;;;;;;15.57;6.43;;;;;;;8.47;100.00;97920.78;5047631;28;20205;-79
2023/03/13 05:34:03;;;;;;;18.00;7.23;;;;;;;8.41;100.00;97937.09;5061083;28;20194;-79
2023/03/13 05:36:31;;;;;;;17.87;6.80;;;;;;;8.50;100.00;97936.41;5094968;28;20209;-79
2023/03/13 05:38:59;;;;;;;18.63;8.30;;;;;;;8.45;100.00;97931.44;5095372;28;20814;-79
2023/03/13 05:41:28;;;;;;;22.63;7.87;;;;;;;8.46;100.00;97925.22;5092174;28;20199;-79
2023/03/13 05:43:57;;;;;;;17.80;8.37;;;;;;;8.55;100.00;97921.03;5095339;28;20195;-79
2023/03/13 05:46:25;;;;;;;23.20;8.40;;;;;;;8.56;100.00;97934.13;5092679;28;20558;-79
2023/03/13 05:48:54;;;;;;;18.50;7.90;;;;;;;8.60;100.00;97937.38;5095685;28;20240;-79
2023/03/13 05:51:24;;;;;;;19.67;7.73;;;;;;;8.60;100.00;97943.50;5090985;28;20196;-79
2023/03/13 05:53:52;;;;;;;22.30;8.17;;;;;;;8.55;100.00;97936.88;5093374;28;20203;-80
2023/03/13 05:56:20;;;;;;;15.90;8.03;;;;;;;8.65;100.00;97927.31;5092579;28;20200;-79
2023/03/13 05:58:49;;;;;;;15.27;7.63;;;;;;;8.64;100.00;97916.88;5095144;28;20658;-80
2023/03/13 06:01:17;;;;;;;20.70;9.00;;;;;;;8.59;100.00;97904.88;5095256;28;20265;-79
2023/03/13 06:03:46;;;;;;;13.37;8.30;;;;;;;8.64;100.00;97899.22;5093352;28;20188;-79
2023/03/13 06:06:17;;;;;;;21.17;9.03;;;;;;;8.63;100.00;97892.28;5087279;28;20218;-79
2023/03/13 06:08:47;;;;;;;23.37;8.77;;;;;;;8.66;100.00;97891.19;5094305;28;20269;-79
2023/03/13 06:11:16;;;;;;;20.10;9.63;;;;;;;8.67;100.00;97887.59;5095107;28;20198;-80
2023/03/13 06:13:44;;;;;;;22.07;11.23;;;;;;;8.72;100.00;97901.28;5090007;28;20743;-80
2023/03/13 06:16:13;;;;;;;20.13;11.50;;;;;;;8.78;100.00;97884.97;5094966;28;20188;-79
2023/03/13 06:18:41;;;;;;;20.17;11.33;;;;;;;8.79;100.00;97887.50;5095271;28;20230;-80
2023/03/13 06:21:09;;;;;;;20.33;11.63;;;;;;;8.74;100.00;97894.94;5090134;28;20199;-79
2023/03/13 06:23:38;;;;;;;21.70;11.67;;;;;;;8.80;100.00;97896.28;5092741;28;20206;-80
2023/03/13 06:26:09;;;;;;;19.80;12.10;;;;;;;8.89;100.00;97891.13;5097679;28;20518;-79
2023/03/13 06:28:37;;;;;;;20.10;11.40;;;;;;;8.94;100.00;97896.03;5092161;28;20222;-80
2023/03/13 06:31:08;;;;;;;17.03;11.60;;;;;;;9.00;100.00;97914.06;5095153;28;20188;-79
2023/03/13 06:33:39;;;;;;;18.43;12.40;;;;;;;9.04;100.00;97907.56;5089837;28;20200;-80
2023/03/13 06:36:08;;;;;;;20.13;12.07;;;;;;;9.07;100.00;97915.25;5091044;28;20237;-79
2023/03/13 06:38:39;;;;;;;17.17;11.77;;;;;;;9.12;100.00;97905.16;5094596;28;20825;-80
2023/03/13 06:41:07;;;;;;;20.17;11.90;;;;;;;9.16;100.00;97913.69;5092460;28;20188;-80
2023/03/13 06:43:39;;;;;;;15.23;11.93;;;;;;;9.15;100.00;97906.72;5094490;28;20188;-79
2023/03/13 06:46:08;;;;;;;14.13;11.77;;;;;;;9.19;100.00;97910.81;5094474;28;20200;-79
2023/03/13 06:48:36;;;;;;;18.13;12.70;;;;;;;9.13;100.00;97913.94;5094138;28;20212;-79
2023/03/13 06:51:05;;;;;;;16.63;11.53;;;;;;;9.18;100.00;97925.00;5093389;28;20245;-80
2023/03/13 06:53:34;;;;;;;17.60;12.07;;;;;;;9.25;100.00;97927.97;5056832;28;20290;-79
2023/03/13 06:56:02;;;;;;;16.43;12.03;;;;;;;9.27;100.00;97932.19;5092701;28;20200;-79
2023/03/13 06:58:31;;;;;;;16.63;12.43;;;;;;;9.35;100.00;97936.84;5094210;28;20187;-79
2023/03/13 07:01:06;;;;;;;19.87;12.97;;;;;;;9.36;100.00;97941.16;5088914;28;20267;-79
2023/03/13 07:03:35;;;;;;;16.43;11.93;;;;;;;9.46;100.00;97936.88;5094328;28;20199;-80
2023/03/13 07:06:06;;;;;;;19.10;13.40;;;;;;;9.48;100.00;97927.00;5094940;27;20192;-79
2023/03/13 07:08:36;;;;;;;20.40;14.00;;;;;;;9.50;100.00;97937.47;5087377;28;20241;-80
2023/03/13 07:11:07;;;;;;;21.50;14.50;;;;;;;9.50;100.00;97940.09;5095548;27;20226;-80
2023/03/13 07:13:35;;;;;;;23.07;14.30;;;;;;;9.49;100.00;97946.34;5093838;28;20200;-79
2023/03/13 07:16:07;;;;;;;20.33;14.17;;;;;;;9.59;100.00;97952.59;5091291;28;20340;-79
2023/03/13 07:18:37;;;;;;;21.23;14.30;;;;;;;9.60;100.00;97952.47;5059005;28;20281;-79
2023/03/13 07:21:05;;;;;;;23.03;14.80;;;;;;;9.57;100.00;97952.72;5098367;28;20196;-79
2023/03/13 07:23:35;;;;;;;26.87;14.60;;;;;;;9.60;100.00;97949.81;5094037;28;20188;-79
2023/03/13 07:26:05;;;;;;;17.73;13.23;;;;;;;9.69;100.00;97950.91;5091615;28;20194;-80
2023/03/13 07:28:34;;;;;;;17.20;13.60;;;;;;;9.69;100.00;97948.25;5095825;27;20273;-80
2023/03/13 07:31:08;;;;;;;17.93;13.77;;;;;;;9.75;100.00;97943.31;5057069;28;20211;-79
2023/03/13 07:33:36;;;;;;;19.20;13.97;;;;;;;9.82;100.00;97938.38;5088010;28;20650;-79
2023/03/13 07:36:05;;;;;;;17.70;13.27;;;;;;;9.79;100.00;97935.97;5084213;28;20265;-79
2023/03/13 07:38:34;;;;;;;19.77;13.20;;;;;;;9.77;100.00;97931.78;5091393;28;20226;-79
2023/03/13 07:41:08;;;;;;;22.83;14.10;;;;;;;9.80;100.00;97921.78;5093746;28;20192;-79
2023/03/13 07:43:36;;;;;;;17.27;13.00;;;;;;;9.89;100.00;97914.91;5090074;28;20674;-80
2023/03/13 07:46:08;;;;;;;18.80;13.37;;;;;;;9.97;100.00;97921.25;5088812;28;20195;-80
2023/03/13 07:48:40;;;;;;;21.73;13.70;;;;;;;10.02;100.00;97920.88;5089227;28;20239;-79
2023/03/13 07:51:12;;;;;;;16.47;12.93;;;;;;;10.09;100.00;97927.34;5091565;28;20195;-79
2023/03/13 07:53:40;;;;;;;18.93;12.17;;;;;;;10.10;100.00;97926.38;5092920;28;20245;-79
2023/03/13 07:56:11;;;;;;;16.80;12.10;;;;;;;10.18;100.00;97934.53;5089313;28;20203;-79
2023/03/13 07:58:43;;;;;;;20.47;13.73;;;;;;;10.23;100.00;97924.47;5090649;28;20245;-79
2023/03/13 08:01:17;;;;;;;15.93;11.70;;;;;;;10.28;100.00;97929.34;5092963;28;20211;-79
2023/03/13 08:03:47;;;;;;;20.67;12.67;;;;;;;10.27;100.00;97915.28;5027851;28;20206;-80
2023/03/13 08:06:18;;;;;;;19.13;11.97;;;;;;;10.36;100.00;97928.72;5025641;28;20337;-79
2023/03/13 08:08:50;;;;;;;16.23;11.73;;;;;;;10.42;100.00;97931.72;5025700;28;20218;-79
2023/03/13 08:11:20;;;;;;;16.63;11.33;;;;;;;10.49;100.00;97932.88;5027681;28;20200;-80
2023/03/13 08:13:49;;;;;;;12.23;10.10;;;;;;;10.68;100.00;97941.91;5027919;28;20198;-80
2023/03/13 08:16:21;;;;;;;11.13;7.50;;;;;;;10.88;100.00;97933.13;5025312;28;20202;-80
2023/03/13 08:18:50;;;;;;;7.97;6.50;;;;;;;10.99;100.00;97926.91;4973517;28;20204;-79
2023/03/13 08:21:21;;;;;;;8.10;5.80;;;;;;;11.12;100.00;97930.22;5043453;28;20227;-79
2023/03/13 08:23:52;;;;;;;8.57;5.80;;;;;;;11.20;100.00;97935.69;5091490;28;20199;-79
2023/03/13 08:26:23;;;;;;;10.07;5.40;;;;;;;11.29;100.00;97947.28;5092834;28;20220;-79
2023/03/13 08:28:54;;;;;;;6.27;5.03;;;;;;;11.44;100.00;97928.25;5090454;28;20207;-80
2023/03/13 08:31:25;;;;;;;6.97;4.50;;;;;;;11.62;100.00;97928.47;5092645;28;20206;-80
2023/03/13 08:33:54;;;;;;;5.20;3.80;;;;;;;11.69;100.00;97926.13;5091596;28;20218;-79
2023/03/13 08:36:25;;;;;;;4.73;3.93;;;;;;;11.74;100.00;97907.97;5065990;28;20187;-79
2023/03/13 08:38:57;;;;;;;4.47;3.53;;;;;;;11.86;100.00;97917.50;5090919;28;20285;-79
2023/03/13 08:41:28;;;;;;;6.20;3.70;;;;;;;11.90;100.00;97905.66;5092549;28;20190;-79
2023/03/13 08:43:58;;;;;;;4.57;3.00;;;;;;;11.85;100.00;97904.38;5093811;28;20261;-79
2023/03/13 08:46:30;;;;;;;5.77;3.67;;;;;;;11.82;100.00;97891.41;5088620;28;20199;-80
2023/03/13 08:48:59;;;;;;;5.13;3.50;;;;;;;11.78;100.00;97892.63;5094727;27;20226;-79
2023/03/13 08:51:28;;;;;;;5.47;3.33;;;;;;;11.87;100.00;97891.81;5086672;28;20257;-79
2023/03/13 08:53:57;;;;;;;6.23;3.33;;;;;;;11.88;100.00;97888.22;5091507;28;20210;-80
2023/03/13 08:56:30;;;;;;;5.30;3.50;;;;;;;11.82;100.00;97876.31;5097868;28;20203;-80
2023/03/13 08:58:59;;;;;;;4.20;3.20;;;;;;;11.89;100.00;97882.75;5091341;28;20200;-80
2023/03/13 09:01:31;;;;;;;4.27;3.20;;;;;;;11.99;100.00;97880.13;5099192;27;20211;-79
2023/03/13 09:03:59;;;;;;;3.90;3.20;;;;;;;11.96;100.00;97877.72;5096417;28;20240;-79
2023/03/13 09:06:31;;;;;;;3.77;3.03;;;;;;;12.01;100.00;97879.00;5092256;28;20252;-79
2023/03/13 09:09:00;;;;;;;4.87;2.77;;;;;;;12.09;100.00;97877.47;5095287;28;20203;-79
2023/03/13 09:11:29;;;;;;;2.97;2.50;;;;;;;12.22;100.00;97876.19;5096242;28;20200;-80
2023/03/13 09:13:59;;;;;;;4.77;2.80;;;;;;;12.30;100.00;97879.00;5096435;28;20236;-79
2023/03/13 09:16:31;;;;;;;2.87;2.50;;;;;;;12.54;100.00;97859.09;5092742;28;20192;-79
2023/03/13 09:19:02;;;;;;;4.63;2.27;;;;;;;12.57;100.00;97858.84;5093910;28;20227;-79
2023/03/13 09:21:33;;;;;;;3.13;2.00;;;;;;;12.76;100.00;97844.69;5088781;28;20723;-79
2023/03/13 09:24:01;;;;;;;2.87;2.03;;;;;;;12.87;100.00;97832.06;5093414;28;20243;-79
2023/03/13 09:26:30;;;;;;;3.17;2.10;;;;;;;13.07;100.00;97838.13;5097859;28;20203;-79
2023/03/13 09:28:58;;;;;;;4.07;1.80;;;;;;;13.34;100.00;97800.13;5093828;28;20200;-79
2023/03/13 09:31:30;;;;;;;4.73;2.17;;;;;;;13.38;100.00;97784.69;5095258;28;20294;-79
2023/03/13 09:33:59;;;;;;;4.63;1.93;;;;;;;13.40;100.00;97775.56;5096599;28;20184;-79
2023/03/13 09:36:28;;;;;;;4.13;1.63;;;;;;;13.41;100.00;97765.75;5093860;28;20206;-79
2023/03/13 09:38:58;;;;;;;4.13;1.87;;;;;;;13.50;100.00;97762.19;5095402;28;20234;-79
2023/03/13 09:41:33;;;;;;;4.07;1.87;;;;;;;13.43;100.00;97756.66;5094790;28;20192;-80
2023/03/13 09:44:07;;;;;;;3.00;1.90;;;;;;;13.36;100.00;97760.06;5094580;28;20202;-79
2023/03/13 09:46:44;;;;;;;3.50;1.80;;;;;;;13.40;100.00;97741.00;5091094;28;20203;-79
2023/03/13 09:49:28;;;;;;;3.03;2.00;;;;;;;13.42;100.00;97746.19;5095439;28;20204;-79
2023/03/13 09:52:04;;;;;;;2.83;2.00;;;;;;;13.39;100.00;97754.44;5089718;28;20191;-79
2023/03/13 09:54:38;;;;;;;4.70;1.87;;;;;;;13.41;100.00;97737.38;5094451;28;20256;-79
2023/03/13 09:57:14;;;;;;;1.90;1.70;;;;;;;13.46;100.00;97732.41;5095042;28;20226;-79
2023/03/13 09:59:50;;;;;;;4.70;2.00;;;;;;;13.57;100.00;97722.53;5097315;27;20195;-81
2023/03/13 10:02:27;;;;;;;3.40;1.90;;;;;;;13.56;100.00;97727.03;5090619;28;20203;-80
2023/03/13 10:05:05;;;;;;;5.63;1.77;;;;;;;13.62;100.00;97733.56;5092018;28;20263;-80
2023/03/13 10:07:33;;;;;;;4.20;1.90;;;;;;;13.67;100.00;97737.44;5093387;28;20190;-80
2023/03/13 10:10:02;;;;;;;2.60;1.97;;;;;;;13.78;100.00;97736.34;5096093;27;20292;-80
2023/03/13 10:12:43;;;;;;;2.80;1.70;;;;;;;13.78;100.00;97741.69;5092304;28;20207;-80
2023/03/13 10:15:29;;;;;;;3.70;2.00;;;;;;;13.81;100.00;97732.56;5094169;28;20192;-80
2023/03/13 10:18:02;;;;;;;5.00;1.67;;;;;;;13.91;100.00;97718.19;5096742;27;20207;-80
2023/03/13 10:20:35;;;;;;;3.53;1.80;;;;;;;14.05;100.00;97732.75;5111456;28;20203;-81
2023/03/13 10:23:11;;;;;;;3.37;1.80;;;;;;;14.17;100.00;97743.97;5114880;28;20638;-81
2023/03/13 10:25:40;;;;;;;5.73;2.30;;;;;;;14.25;100.00;97728.06;5110580;28;20198;-80
2023/03/13 10:28:12;;;;;;;5.23;1.97;;;;;;;14.37;100.00;97726.81;5113995;28;20260;-81
2023/03/13 10:30:45;;;;;;;2.67;1.80;;;;;;;14.34;100.00;97732.44;5115150;27;20215;-81
2023/03/13 10:33:23;;;;;;;4.67;2.13;;;;;;;14.36;100.00;97729.63;5110636;28;20251;-80
2023/03/13 10:36:10;;;;;;;3.20;1.80;;;;;;;14.35;100.00;97717.31;5110186;28;20637;-81
2023/03/13 10:38:49;;;;;;;1.97;1.73;;;;;;;14.37;100.00;97704.66;5119086;28;20256;-80
2023/03/13 10:41:29;;;;;;;1.93;1.53;;;;;;;14.29;100.00;97700.97;5112990;28;20267;-81
2023/03/13 10:44:03;;;;;;;2.67;1.83;;;;;;;14.30;100.00;97699.97;5114079;28;20187;-81
2023/03/13 10:46:33;;;;;;;3.97;2.00;;;;;;;14.25;100.00;97698.78;5113086;28;20251;-81
2023/03/13 10:49:13;;;;;;;2.87;1.70;;;;;;;14.21;100.00;97714.25;5114146;28;20199;-81
2023/03/13 10:51:47;;;;;;;3.10;1.90;;;;;;;14.17;100.00;97707.53;5112600;27;20211;-80
2023/03/13 10:54:21;;;;;;;4.53;2.13;;;;;;;14.17;100.00;97710.19;5115541;28;20195;-81
2023/03/13 10:56:50;;;;;;;2.83;2.40;;;;;;;14.12;100.00;97707.19;5110370;28;20190;-81
2023/03/13 10:59:24;;;;;;;3.80;2.33;;;;;;;13.94;100.00;97720.53;5117290;27;20279;-80
2023/03/13 11:01:58;;;;;;;3.20;2.00;;;;;;;13.97;100.00;97716.72;5114715;28;20195;-81
2023/03/13 11:04:33;;;;;;;3.33;2.27;;;;;;;13.78;100.00;97723.06;5113002;27;20219;-81
2023/03/13 11:07:04;;;;;;;3.93;2.17;;;;;;;13.91;100.00;97722.69;5108244;28;20214;-81
2023/03/13 11:09:33;;;;;;;4.10;2.60;;;;;;;13.90;100.00;97707.69;5111033;28;20195;-81
2023/03/13 11:12:12;;;;;;;5.23;2.33;;;;;;;13.79;100.00;97718.56;5114403;28;20211;-80
2023/03/13 11:14:46;;;;;;;4.13;2.17;;;;;;;13.80;100.00;97705.13;5114772;28;20198;-80
2023/03/13 11:17:24;;;;;;;3.43;2.20;;;;;;;13.85;100.00;97713.47;5112560;28;20183;-80
2023/03/13 11:20:04;;;;;;;3.77;2.90;;;;;;;13.85;100.00;97694.00;5110128;28;20195;-81
2023/03/13 11:22:42;;;;;;;3.60;2.40;;;;;;;13.99;100.00;97680.13;5114118;28;20255;-80
2023/03/13 11:25:22;;;;;;;3.17;2.03;;;;;;;13.89;100.00;97706.84;5114378;28;20700;-81
2023/03/13 11:28:08;;;;;;;3.77;1.80;;;;;;;13.92;100.00;97685.25;5080925;28;20193;-81
2023/03/13 11:31:04;;;;;;;1.93;1.70;;;;;;;13.88;100.00;97688.38;5112442;28;20222;-81
2023/03/13 11:33:42;;;;;;;2.13;1.93;;;;;;;14.00;100.00;97682.66;5074863;28;20207;-80
2023/03/13 11:36:19;;;;;;;3.50;2.10;;;;;;;14.02;100.00;97686.00;5110263;28;20190;-81
2023/03/13 11:38:53;;;;;;;3.93;2.90;;;;;;;14.01;100.00;97684.31;5114802;27;20280;-80
2023/03/13 11:41:41;;;;;;;40.93;26.43;;;;;;;14.02;100.00;97678.00;5111177;28;20225;-81